sensor_id;sensor_type;location;lat;lon;timestamp;pressure;altitude;pressure_sealevel;temperature;humidity
113;BME280;45999;48.808;9.182;2023-06-26T00:00:26;98011.47;;;21.22;57.96
113;BME280;45999;48.808;9.182;2023-06-26T00:02:52;98006.97;;;21.13;58.35
113;BME280;45999;48.808;9.182;2023-06-26T00:05:19;98015.38;;;21.11;58.66
113;BME280;45999;48.808;9.182;2023-06-26T00:07:45;98010.50;;;21.13;58.06
113;BME280;45999;48.808;9.182;2023-06-26T00:10:12;98013.47;;;21.12;59.43
113;BME280;45999;48.808;9.182;2023-06-26T00:12:38;98013.75;;;21.10;58.89
113;BME280;45999;48.808;9.182;2023-06-26T00:15:05;98012.44;;;21.08;59.96
113;BME280;45999;48.808;9.182;2023-06-26T00:17:33;98018.41;;;21.05;61.75
113;BME280;45999;48.808;9.182;2023-06-26T00:20:02;98019.84;;;20.97;62.21
113;BME280;45999;48.808;9.182;2023-06-26T00:22:28;98009.03;;;20.97;61.25
113;BME280;45999;48.808;9.182;2023-06-26T00:24:55;98010.06;;;21.01;60.18
113;BME280;45999;48.808;9.182;2023-06-26T00:27:21;98014.97;;;20.99;60.80
113;BME280;45999;48.808;9.182;2023-06-26T00:29:48;98007.22;;;20.93;61.16
113;BME280;45999;48.808;9.182;2023-06-26T00:32:14;98015.31;;;20.88;60.32
113;BME280;45999;48.808;9.182;2023-06-26T00:34:41;98015.34;;;20.83;61.78
113;BME280;45999;48.808;9.182;2023-06-26T00:37:07;98013.75;;;20.82;62.85
113;BME280;45999;48.808;9.182;2023-06-26T00:39:33;98012.38;;;20.84;60.97
113;BME280;45999;48.808;9.182;2023-06-26T00:42:00;98012.47;;;20.74;62.27
113;BME280;45999;48.808;9.182;2023-06-26T00:44:26;98007.06;;;20.74;62.75
113;BME280;45999;48.808;9.182;2023-06-26T00:46:53;98003.56;;;20.74;62.21
113;BME280;45999;48.808;9.182;2023-06-26T00:49:19;98013.31;;;20.75;62.83
113;BME280;45999;48.808;9.182;2023-06-26T00:51:46;98004.50;;;20.88;60.34
113;BME280;45999;48.808;9.182;2023-06-26T00:54:12;97999.59;;;20.95;61.04
113;BME280;45999;48.808;9.182;2023-06-26T00:56:45;98003.41;;;20.94;60.15
113;BME280;45999;48.808;9.182;2023-06-26T00:59:11;98004.81;;;20.86;61.88
113;BME280;45999;48.808;9.182;2023-06-26T01:01:38;98006.47;;;20.82;61.07
113;BME280;45999;48.808;9.182;2023-06-26T01:04:04;98001.66;;;20.74;61.51
113;BME280;45999;48.808;9.182;2023-06-26T01:06:32;98007.91;;;20.75;63.16
113;BME280;45999;48.808;9.182;2023-06-26T01:09:01;97999.19;;;20.78;61.22
113;BME280;45999;48.808;9.182;2023-06-26T01:11:28;97996.94;;;20.61;63.53
113;BME280;45999;48.808;9.182;2023-06-26T01:13:56;98002.34;;;20.61;63.63
113;BME280;45999;48.808;9.182;2023-06-26T01:16:23;98003.75;;;20.54;62.98
113;BME280;45999;48.808;9.182;2023-06-26T01:18:50;98001.38;;;20.47;63.50
113;BME280;45999;48.808;9.182;2023-06-26T01:21:18;97990.56;;;20.47;62.37
113;BME280;45999;48.808;9.182;2023-06-26T01:24:12;97995.69;;;20.49;63.76
113;BME280;45999;48.808;9.182;2023-06-26T01:26:46;97989.81;;;20.42;64.11
113;BME280;45999;48.808;9.182;2023-06-26T01:29:15;97995.25;;;20.37;65.94
113;BME280;45999;48.808;9.182;2023-06-26T01:31:42;97989.28;;;20.40;63.81
113;BME280;45999;48.808;9.182;2023-06-26T01:34:11;97985.28;;;20.37;64.31
113;BME280;45999;48.808;9.182;2023-06-26T01:36:38;97982.75;;;20.46;63.05
113;BME280;45999;48.808;9.182;2023-06-26T01:39:04;97987.44;;;20.35;64.44
113;BME280;45999;48.808;9.182;2023-06-26T01:41:31;97982.28;;;20.39;64.37
113;BME280;45999;48.808;9.182;2023-06-26T01:46:47;97979.97;;;20.27;65.58
113;BME280;45999;48.808;9.182;2023-06-26T01:49:31;97974.84;;;20.26;65.24
113;BME280;45999;48.808;9.182;2023-06-26T01:52:09;97977.34;;;20.12;65.60
113;BME280;45999;48.808;9.182;2023-06-26T01:54:49;97974.06;;;20.20;64.67
113;BME280;45999;48.808;9.182;2023-06-26T01:57:19;97980.00;;;20.17;65.17
113;BME280;45999;48.808;9.182;2023-06-26T01:59:48;97971.63;;;20.19;65.65
113;BME280;45999;48.808;9.182;2023-06-26T02:02:14;97964.31;;;20.24;65.90
113;BME280;45999;48.808;9.182;2023-06-26T02:04:41;97970.59;;;20.15;64.88
113;BME280;45999;48.808;9.182;2023-06-26T02:07:07;97977.66;;;20.11;67.58
113;BME280;45999;48.808;9.182;2023-06-26T02:09:35;97975.81;;;20.01;67.13
113;BME280;45999;48.808;9.182;2023-06-26T02:12:01;97983.69;;;19.88;68.71
113;BME280;45999;48.808;9.182;2023-06-26T02:14:27;97969.91;;;19.94;67.79
113;BME280;45999;48.808;9.182;2023-06-26T02:16:54;97968.59;;;19.87;68.45
113;BME280;45999;48.808;9.182;2023-06-26T02:19:20;97974.59;;;19.84;69.01
113;BME280;45999;48.808;9.182;2023-06-26T02:21:48;97974.59;;;19.84;69.19
113;BME280;45999;48.808;9.182;2023-06-26T02:24:15;97970.53;;;19.86;68.88
113;BME280;45999;48.808;9.182;2023-06-26T02:26:41;97968.38;;;19.83;69.00
113;BME280;45999;48.808;9.182;2023-06-26T02:29:07;97978.31;;;19.88;68.66
113;BME280;45999;48.808;9.182;2023-06-26T02:31:34;97975.91;;;19.81;69.99
113;BME280;45999;48.808;9.182;2023-06-26T02:34:00;97973.81;;;19.78;70.57
113;BME280;45999;48.808;9.182;2023-06-26T02:36:26;97975.22;;;19.60;70.38
113;BME280;45999;48.808;9.182;2023-06-26T02:38:53;97975.81;;;19.58;72.37
113;BME280;45999;48.808;9.182;2023-06-26T02:41:19;97971.50;;;19.51;71.41
113;BME280;45999;48.808;9.182;2023-06-26T02:43:46;97972.34;;;19.47;71.31
113;BME280;45999;48.808;9.182;2023-06-26T02:46:12;97974.22;;;19.46;72.22
113;BME280;45999;48.808;9.182;2023-06-26T02:48:38;97972.41;;;19.37;72.24
113;BME280;45999;48.808;9.182;2023-06-26T02:51:05;97974.84;;;19.38;72.10
113;BME280;45999;48.808;9.182;2023-06-26T02:53:31;97975.88;;;19.42;72.45
113;BME280;45999;48.808;9.182;2023-06-26T02:55:58;97968.09;;;19.41;73.44
113;BME280;45999;48.808;9.182;2023-06-26T02:58:24;97968.41;;;19.29;72.32
113;BME280;45999;48.808;9.182;2023-06-26T03:00:50;97969.41;;;19.43;72.98
113;BME280;45999;48.808;9.182;2023-06-26T03:03:18;97971.84;;;19.40;71.95
113;BME280;45999;48.808;9.182;2023-06-26T03:05:45;97965.13;;;19.32;72.72
113;BME280;45999;48.808;9.182;2023-06-26T03:08:11;97970.81;;;19.36;72.85
113;BME280;45999;48.808;9.182;2023-06-26T03:10:37;97968.91;;;19.36;72.73
113;BME280;45999;48.808;9.182;2023-06-26T03:13:04;97968.31;;;19.44;73.62
113;BME280;45999;48.808;9.182;2023-06-26T03:15:30;97965.13;;;19.32;72.74
113;BME280;45999;48.808;9.182;2023-06-26T03:17:56;97969.47;;;19.33;74.17
113;BME280;45999;48.808;9.182;2023-06-26T03:20:23;97970.56;;;19.27;73.36
113;BME280;45999;48.808;9.182;2023-06-26T03:22:49;97969.50;;;19.23;74.61
113;BME280;45999;48.808;9.182;2023-06-26T03:25:15;97971.91;;;19.20;73.62
113;BME280;45999;48.808;9.182;2023-06-26T03:27:42;97967.34;;;19.15;73.99
113;BME280;45999;48.808;9.182;2023-06-26T03:30:08;97968.41;;;19.14;75.03
113;BME280;45999;48.808;9.182;2023-06-26T03:32:35;97967.66;;;19.09;75.89
113;BME280;45999;48.808;9.182;2023-06-26T03:35:01;97969.25;;;19.10;74.97
113;BME280;45999;48.808;9.182;2023-06-26T03:37:28;97974.91;;;19.08;75.04
113;BME280;45999;48.808;9.182;2023-06-26T03:39:55;97972.47;;;19.12;75.15
113;BME280;45999;48.808;9.182;2023-06-26T03:42:21;97973.84;;;19.04;76.46
113;BME280;45999;48.808;9.182;2023-06-26T03:44:48;97977.59;;;19.08;76.31
113;BME280;45999;48.808;9.182;2023-06-26T03:47:14;97977.59;;;19.08;75.42
113;BME280;45999;48.808;9.182;2023-06-26T03:49:40;97969.78;;;19.07;75.69
113;BME280;45999;48.808;9.182;2023-06-26T03:52:07;97974.91;;;19.08;75.92
113;BME280;45999;48.808;9.182;2023-06-26T03:54:33;97982.97;;;19.13;75.89
113;BME280;45999;48.808;9.182;2023-06-26T03:56:59;97980.84;;;19.15;76.86
113;BME280;45999;48.808;9.182;2023-06-26T03:59:26;97981.34;;;19.22;75.62
113;BME280;45999;48.808;9.182;2023-06-26T04:01:52;97975.41;;;19.30;75.71
113;BME280;45999;48.808;9.182;2023-06-26T04:04:18;97972.66;;;19.40;73.37
113;BME280;45999;48.808;9.182;2023-06-26T04:06:45;97981.25;;;19.48;72.78
113;BME280;45999;48.808;9.182;2023-06-26T04:09:11;97979.09;;;19.49;72.88
113;BME280;45999;48.808;9.182;2023-06-26T04:11:38;97983.66;;;19.54;73.93
113;BME280;45999;48.808;9.182;2023-06-26T04:14:04;97989.06;;;19.49;74.37
113;BME280;45999;48.808;9.182;2023-06-26T04:16:30;97987.13;;;19.59;74.13
113;BME280;45999;48.808;9.182;2023-06-26T04:18:57;97986.88;;;19.56;74.58
113;BME280;45999;48.808;9.182;2023-06-26T04:21:23;97984.44;;;19.54;75.17
113;BME280;45999;48.808;9.182;2023-06-26T04:23:50;97989.31;;;19.52;75.31
113;BME280;45999;48.808;9.182;2023-06-26T04:26:17;97987.69;;;19.51;76.00
113;BME280;45999;48.808;9.182;2023-06-26T04:28:43;97990.09;;;19.53;76.30
113;BME280;45999;48.808;9.182;2023-06-26T04:31:10;97996.56;;;19.57;73.24
113;BME280;45999;48.808;9.182;2023-06-26T04:33:37;97991.41;;;19.60;73.39
113;BME280;45999;48.808;9.182;2023-06-26T04:36:04;97992.75;;;19.68;73.83
113;BME280;45999;48.808;9.182;2023-06-26T04:38:32;97981.97;;;19.68;73.01
113;BME280;45999;48.808;9.182;2023-06-26T04:40:59;97981.66;;;19.75;74.20
113;BME280;45999;48.808;9.182;2023-06-26T04:43:26;97984.28;;;19.85;72.99
113;BME280;45999;48.808;9.182;2023-06-26T04:45:53;97986.94;;;19.90;72.67
113;BME280;45999;48.808;9.182;2023-06-26T04:48:19;97982.84;;;19.97;73.12
113;BME280;45999;48.808;9.182;2023-06-26T04:50:46;97987.72;;;19.95;72.76
113;BME280;45999;48.808;9.182;2023-06-26T04:53:19;97985.50;;;20.02;72.86
113;BME280;45999;48.808;9.182;2023-06-26T04:55:45;97983.84;;;20.06;71.38
113;BME280;45999;48.808;9.182;2023-06-26T04:58:11;97986.28;;;20.08;73.51
113;BME280;45999;48.808;9.182;2023-06-26T05:00:38;97983.53;;;20.18;71.18
113;BME280;45999;48.808;9.182;2023-06-26T05:03:09;97984.53;;;20.27;71.85
113;BME280;45999;48.808;9.182;2023-06-26T05:05:35;97983.34;;;20.43;71.21
113;BME280;45999;48.808;9.182;2023-06-26T05:08:16;97982.88;;;20.64;70.09
113;BME280;45999;48.808;9.182;2023-06-26T05:10:44;97982.75;;;21.03;67.30
113;BME280;45999;48.808;9.182;2023-06-26T05:13:11;97979.94;;;21.55;65.09
113;BME280;45999;48.808;9.182;2023-06-26T05:15:40;97984.03;;;21.76;63.73
113;BME280;45999;48.808;9.182;2023-06-26T05:18:06;97973.47;;;22.11;61.64
113;BME280;45999;48.808;9.182;2023-06-26T05:20:34;97971.59;;;22.44;61.09
113;BME280;45999;48.808;9.182;2023-06-26T05:23:04;97971.53;;;22.94;59.67
113;BME280;45999;48.808;9.182;2023-06-26T05:25:31;97977.81;;;23.35;57.47
113;BME280;45999;48.808;9.182;2023-06-26T05:27:59;97985.03;;;23.53;56.61
113;BME280;45999;48.808;9.182;2023-06-26T05:30:26;97974.97;;;23.40;57.47
113;BME280;45999;48.808;9.182;2023-06-26T05:32:54;97975.78;;;23.27;57.59
113;BME280;45999;48.808;9.182;2023-06-26T05:35:20;97992.03;;;23.00;58.42
113;BME280;45999;48.808;9.182;2023-06-26T05:37:51;97981.34;;;22.77;60.00
113;BME280;45999;48.808;9.182;2023-06-26T05:40:17;97987.53;;;22.64;60.29
113;BME280;45999;48.808;9.182;2023-06-26T05:42:45;97989.25;;;22.41;60.77
113;BME280;45999;48.808;9.182;2023-06-26T05:45:11;97991.81;;;22.33;62.22
113;BME280;45999;48.808;9.182;2023-06-26T05:47:38;97986.63;;;22.36;62.14
113;BME280;45999;48.808;9.182;2023-06-26T05:50:06;97991.81;;;22.33;61.68
113;BME280;45999;48.808;9.182;2023-06-26T05:52:33;97995.53;;;22.37;61.98
113;BME280;45999;48.808;9.182;2023-06-26T05:55:00;97990.34;;;22.40;61.73
113;BME280;45999;48.808;9.182;2023-06-26T05:57:28;97985.81;;;22.54;60.43
113;BME280;45999;48.808;9.182;2023-06-26T05:59:55;97988.53;;;22.68;60.55
113;BME280;45999;48.808;9.182;2023-06-26T06:02:22;97989.75;;;22.75;59.88
113;BME280;45999;48.808;9.182;2023-06-26T06:04:49;97992.91;;;22.82;59.63
113;BME280;45999;48.808;9.182;2023-06-26T06:07:15;98000.00;;;22.78;59.98
113;BME280;45999;48.808;9.182;2023-06-26T06:09:41;97989.56;;;22.72;60.62
113;BME280;45999;48.808;9.182;2023-06-26T06:12:08;97987.38;;;22.87;59.67
113;BME280;45999;48.808;9.182;2023-06-26T06:14:34;97984.47;;;22.84;60.67
113;BME280;45999;48.808;9.182;2023-06-26T06:17:01;97986.66;;;22.82;60.49
113;BME280;45999;48.808;9.182;2023-06-26T06:19:27;97986.06;;;22.85;60.75
113;BME280;45999;48.808;9.182;2023-06-26T06:21:54;97988.19;;;22.88;61.84
113;BME280;45999;48.808;9.182;2023-06-26T06:24:20;97990.06;;;23.19;59.03
113;BME280;45999;48.808;9.182;2023-06-26T06:26:46;97986.72;;;23.36;59.19
113;BME280;45999;48.808;9.182;2023-06-26T06:29:13;97993.06;;;23.45;57.83
113;BME280;45999;48.808;9.182;2023-06-26T06:31:39;97988.63;;;23.49;59.11
113;BME280;45999;48.808;9.182;2023-06-26T06:34:05;97998.09;;;23.38;59.18
113;BME280;45999;48.808;9.182;2023-06-26T06:36:32;97989.03;;;23.42;59.00
113;BME280;45999;48.808;9.182;2023-06-26T06:38:58;97988.25;;;23.42;58.67
113;BME280;45999;48.808;9.182;2023-06-26T06:41:24;97994.84;;;23.63;58.78
113;BME280;45999;48.808;9.182;2023-06-26T06:43:51;97999.84;;;23.83;57.33
113;BME280;45999;48.808;9.182;2023-06-26T06:46:17;97998.44;;;23.85;57.07
113;BME280;45999;48.808;9.182;2023-06-26T06:48:44;97995.34;;;23.92;56.53
113;BME280;45999;48.808;9.182;2023-06-26T06:51:11;98004.72;;;24.08;55.88
113;BME280;45999;48.808;9.182;2023-06-26T06:53:38;98001.03;;;24.26;56.22
113;BME280;45999;48.808;9.182;2023-06-26T06:56:04;97996.34;;;24.18;54.91
113;BME280;45999;48.808;9.182;2023-06-26T06:58:30;97999.13;;;24.26;54.98
113;BME280;45999;48.808;9.182;2023-06-26T07:00:59;98001.53;;;24.50;54.68
113;BME280;45999;48.808;9.182;2023-06-26T07:03:27;97999.69;;;24.81;52.53
113;BME280;45999;48.808;9.182;2023-06-26T07:05:55;98006.84;;;24.55;53.81
113;BME280;45999;48.808;9.182;2023-06-26T07:08:21;97999.94;;;24.49;53.73
113;BME280;45999;48.808;9.182;2023-06-26T07:10:48;98002.03;;;24.52;54.27
113;BME280;45999;48.808;9.182;2023-06-26T07:13:14;98004.75;;;24.52;53.60
113;BME280;45999;48.808;9.182;2023-06-26T07:15:40;97997.28;;;24.79;53.37
113;BME280;45999;48.808;9.182;2023-06-26T07:18:07;98006.22;;;25.02;52.43
113;BME280;45999;48.808;9.182;2023-06-26T07:20:33;97998.28;;;25.14;52.48
113;BME280;45999;48.808;9.182;2023-06-26T07:22:59;98001.78;;;25.14;51.93
113;BME280;45999;48.808;9.182;2023-06-26T07:25:27;97998.44;;;25.17;52.16
113;BME280;45999;48.808;9.182;2023-06-26T07:27:53;97990.41;;;25.51;50.64
113;BME280;45999;48.808;9.182;2023-06-26T07:30:19;97993.47;;;25.58;51.99
113;BME280;45999;48.808;9.182;2023-06-26T07:32:46;97998.97;;;25.75;51.36
113;BME280;45999;48.808;9.182;2023-06-26T07:35:12;97998.53;;;25.99;49.30
113;BME280;45999;48.808;9.182;2023-06-26T07:37:38;97999.75;;;25.76;50.33
113;BME280;45999;48.808;9.182;2023-06-26T07:40:06;97999.66;;;25.98;51.29
113;BME280;45999;48.808;9.182;2023-06-26T07:42:33;98007.03;;;26.06;50.91
113;BME280;45999;48.808;9.182;2023-06-26T07:44:59;98002.53;;;25.93;51.52
113;BME280;45999;48.808;9.182;2023-06-26T07:47:26;97997.75;;;26.07;46.81
113;BME280;45999;48.808;9.182;2023-06-26T07:49:52;98001.28;;;26.16;47.33
113;BME280;45999;48.808;9.182;2023-06-26T07:52:19;98000.47;;;26.15;47.61
113;BME280;45999;48.808;9.182;2023-06-26T07:54:45;97994.88;;;26.29;48.00
113;BME280;45999;48.808;9.182;2023-06-26T07:57:11;97995.81;;;26.58;46.69
113;BME280;45999;48.808;9.182;2023-06-26T07:59:38;97991.66;;;26.61;45.90
113;BME280;45999;48.808;9.182;2023-06-26T08:02:05;97994.22;;;26.57;45.66
113;BME280;45999;48.808;9.182;2023-06-26T08:04:31;97996.63;;;26.59;45.45
113;BME280;45999;48.808;9.182;2023-06-26T08:06:59;97992.13;;;26.63;45.41
113;BME280;45999;48.808;9.182;2023-06-26T08:09:28;97990.84;;;26.69;45.13
113;BME280;45999;48.808;9.182;2023-06-26T08:11:55;97986.63;;;26.80;45.56
113;BME280;45999;48.808;9.182;2023-06-26T08:14:22;97988.44;;;27.13;44.22
113;BME280;45999;48.808;9.182;2023-06-26T08:16:49;97987.75;;;27.34;43.52
113;BME280;45999;48.808;9.182;2023-06-26T08:19:16;97988.53;;;27.63;43.43
113;BME280;45999;48.808;9.182;2023-06-26T08:21:44;97985.94;;;27.46;43.33
113;BME280;45999;48.808;9.182;2023-06-26T08:24:11;97985.44;;;27.44;43.25
113;BME280;45999;48.808;9.182;2023-06-26T08:26:41;97981.44;;;27.42;43.73
113;BME280;45999;48.808;9.182;2023-06-26T08:29:07;97977.91;;;27.70;43.16
113;BME280;45999;48.808;9.182;2023-06-26T08:31:34;97978.84;;;27.74;42.72
113;BME280;45999;48.808;9.182;2023-06-26T08:34:02;97985.84;;;27.92;42.36
113;BME280;45999;48.808;9.182;2023-06-26T08:36:29;97976.38;;;28.10;42.43
113;BME280;45999;48.808;9.182;2023-06-26T08:38:56;97976.63;;;28.17;41.73
113;BME280;45999;48.808;9.182;2023-06-26T08:41:23;97982.03;;;28.05;42.18
113;BME280;45999;48.808;9.182;2023-06-26T08:43:49;97978.03;;;28.23;41.09
113;BME280;45999;48.808;9.182;2023-06-26T08:46:18;97973.53;;;28.60;40.17
113;BME280;45999;48.808;9.182;2023-06-26T08:49:08;97982.16;;;28.82;39.11
113;BME280;45999;48.808;9.182;2023-06-26T08:51:40;97977.84;;;28.93;39.19
113;BME280;45999;48.808;9.182;2023-06-26T08:54:11;97974.25;;;29.01;40.86
113;BME280;45999;48.808;9.182;2023-06-26T08:56:42;97977.13;;;28.72;40.32
113;BME280;45999;48.808;9.182;2023-06-26T08:59:10;97984.53;;;29.04;38.84
113;BME280;45999;48.808;9.182;2023-06-26T09:01:37;97976.78;;;28.86;39.06
113;BME280;45999;48.808;9.182;2023-06-26T09:04:04;97978.56;;;29.02;39.39
113;BME280;45999;48.808;9.182;2023-06-26T09:06:31;97976.56;;;28.46;40.77
113;BME280;45999;48.808;9.182;2023-06-26T09:08:58;97974.47;;;29.08;40.68
113;BME280;45999;48.808;9.182;2023-06-26T09:11:24;97976.53;;;29.11;38.49
113;BME280;45999;48.808;9.182;2023-06-26T09:13:51;97975.63;;;29.43;38.79
113;BME280;45999;48.808;9.182;2023-06-26T09:16:18;97979.66;;;29.58;39.06
113;BME280;45999;48.808;9.182;2023-06-26T09:18:52;97974.63;;;29.60;39.52
113;BME280;45999;48.808;9.182;2023-06-26T09:21:19;97980.09;;;29.60;37.90
113;BME280;45999;48.808;9.182;2023-06-26T09:23:46;97974.75;;;29.63;37.44
113;BME280;45999;48.808;9.182;2023-06-26T09:26:14;97971.50;;;29.85;36.35
113;BME280;45999;48.808;9.182;2023-06-26T09:28:42;97971.31;;;29.78;37.29
113;BME280;45999;48.808;9.182;2023-06-26T09:31:08;97964.91;;;29.86;36.40
113;BME280;45999;48.808;9.182;2023-06-26T09:33:37;97964.34;;;29.81;36.16
113;BME280;45999;48.808;9.182;2023-06-26T09:36:19;97960.38;;;30.18;36.51
113;BME280;45999;48.808;9.182;2023-06-26T09:38:47;97952.06;;;30.14;35.93
113;BME280;45999;48.808;9.182;2023-06-26T09:41:20;97961.69;;;30.36;36.69
113;BME280;45999;48.808;9.182;2023-06-26T09:43:47;97951.25;;;30.41;36.87
113;BME280;45999;48.808;9.182;2023-06-26T09:46:24;97953.84;;;30.77;36.06
113;BME280;45999;48.808;9.182;2023-06-26T09:49:03;97953.41;;;30.91;34.88
113;BME280;45999;48.808;9.182;2023-06-26T09:51:34;97961.53;;;30.44;35.63
113;BME280;45999;48.808;9.182;2023-06-26T09:54:02;97952.63;;;30.75;36.04
113;BME280;45999;48.808;9.182;2023-06-26T09:56:29;97949.16;;;30.50;36.86
113;BME280;45999;48.808;9.182;2023-06-26T09:58:57;97951.31;;;30.29;36.57
113;BME280;45999;48.808;9.182;2023-06-26T10:01:25;97956.63;;;29.98;36.25
113;BME280;45999;48.808;9.182;2023-06-26T10:03:51;97956.00;;;30.56;36.46
113;BME280;45999;48.808;9.182;2023-06-26T10:06:27;97956.03;;;30.44;36.33
113;BME280;45999;48.808;9.182;2023-06-26T10:08:56;97962.25;;;30.02;37.22
113;BME280;45999;48.808;9.182;2023-06-26T10:11:25;97957.97;;;30.16;37.20
113;BME280;45999;48.808;9.182;2023-06-26T10:13:54;97966.41;;;30.11;39.17
113;BME280;45999;48.808;9.182;2023-06-26T10:16:28;97958.97;;;30.24;38.01
113;BME280;45999;48.808;9.182;2023-06-26T10:18:58;97950.16;;;30.58;37.06
113;BME280;45999;48.808;9.182;2023-06-26T10:21:28;97959.72;;;30.64;37.46
113;BME280;45999;48.808;9.182;2023-06-26T10:23:56;97954.94;;;30.61;37.45
113;BME280;45999;48.808;9.182;2023-06-26T10:26:24;97951.97;;;30.38;38.26
113;BME280;45999;48.808;9.182;2023-06-26T10:28:52;97952.16;;;30.45;38.95
113;BME280;45999;48.808;9.182;2023-06-26T10:31:21;97958.28;;;29.87;39.44
113;BME280;45999;48.808;9.182;2023-06-26T10:33:49;97961.50;;;29.77;40.88
113;BME280;45999;48.808;9.182;2023-06-26T10:36:27;97966.63;;;29.79;40.60
113;BME280;45999;48.808;9.182;2023-06-26T10:38:59;97966.97;;;29.41;40.91
113;BME280;45999;48.808;9.182;2023-06-26T10:41:39;97963.88;;;29.19;41.67
113;BME280;45999;48.808;9.182;2023-06-26T10:44:09;97981.94;;;29.56;41.01
113;BME280;45999;48.808;9.182;2023-06-26T10:49:17;97975.50;;;30.39;39.66
113;BME280;45999;48.808;9.182;2023-06-26T10:51:47;97975.91;;;30.26;39.43
113;BME280;45999;48.808;9.182;2023-06-26T10:54:18;97986.31;;;30.08;38.14
113;BME280;45999;48.808;9.182;2023-06-26T10:59:16;97989.44;;;29.95;37.39
113;BME280;45999;48.808;9.182;2023-06-26T11:01:45;97987.00;;;30.05;37.44
113;BME280;45999;48.808;9.182;2023-06-26T11:04:13;97985.00;;;29.90;36.74
113;BME280;45999;48.808;9.182;2023-06-26T11:06:45;97977.59;;;30.30;37.18
113;BME280;45999;48.808;9.182;2023-06-26T11:09:14;97991.81;;;30.08;37.55
113;BME280;45999;48.808;9.182;2023-06-26T11:11:57;97987.94;;;29.97;37.73
113;BME280;45999;48.808;9.182;2023-06-26T11:14:33;97977.16;;;30.28;37.47
113;BME280;45999;48.808;9.182;2023-06-26T11:17:02;97979.53;;;30.57;38.18
113;BME280;45999;48.808;9.182;2023-06-26T11:19:29;97993.75;;;30.47;37.75
113;BME280;45999;48.808;9.182;2023-06-26T11:21:59;97988.47;;;30.27;37.28
113;BME280;45999;48.808;9.182;2023-06-26T11:24:26;97990.53;;;30.18;37.19
113;BME280;45999;48.808;9.182;2023-06-26T11:26:52;97994.38;;;29.77;38.86
113;BME280;45999;48.808;9.182;2023-06-26T11:29:19;97990.03;;;29.76;39.12
113;BME280;45999;48.808;9.182;2023-06-26T11:31:45;97992.94;;;30.19;39.77
113;BME280;45999;48.808;9.182;2023-06-26T11:34:13;97998.66;;;30.26;39.29
113;BME280;45999;48.808;9.182;2023-06-26T11:36:42;97997.31;;;29.96;39.63
113;BME280;45999;48.808;9.182;2023-06-26T11:39:11;97999.00;;;30.13;40.23
113;BME280;45999;48.808;9.182;2023-06-26T11:41:39;98009.03;;;30.09;40.67
113;BME280;45999;48.808;9.182;2023-06-26T11:44:08;98005.72;;;30.27;41.09
113;BME280;45999;48.808;9.182;2023-06-26T11:46:35;98012.81;;;30.28;41.54
113;BME280;45999;48.808;9.182;2023-06-26T11:49:06;98013.63;;;30.05;41.78
113;BME280;45999;48.808;9.182;2023-06-26T11:51:33;98015.78;;;30.23;42.06
113;BME280;45999;48.808;9.182;2023-06-26T11:54:02;98020.50;;;29.87;42.47
113;BME280;45999;48.808;9.182;2023-06-26T11:56:29;98010.88;;;29.33;43.66
113;BME280;45999;48.808;9.182;2023-06-26T11:59:06;98009.84;;;29.25;45.32
113;BME280;45999;48.808;9.182;2023-06-26T12:01:42;98026.78;;;29.75;43.70
113;BME280;45999;48.808;9.182;2023-06-26T12:04:11;98031.59;;;29.78;43.71
113;BME280;45999;48.808;9.182;2023-06-26T12:06:38;98026.09;;;29.42;44.70
113;BME280;45999;48.808;9.182;2023-06-26T12:09:08;98023.38;;;29.90;44.56
113;BME280;45999;48.808;9.182;2023-06-26T12:11:38;98021.56;;;29.58;45.07
113;BME280;45999;48.808;9.182;2023-06-26T12:14:06;98027.59;;;29.52;44.94
113;BME280;45999;48.808;9.182;2023-06-26T12:16:33;98028.66;;;29.59;45.02
113;BME280;45999;48.808;9.182;2023-06-26T12:19:05;98029.06;;;29.85;45.05
113;BME280;45999;48.808;9.182;2023-06-26T12:24:06;98030.31;;;29.52;44.20
113;BME280;45999;48.808;9.182;2023-06-26T12:26:33;98024.47;;;29.29;45.10
113;BME280;45999;48.808;9.182;2023-06-26T12:29:20;98019.00;;;29.53;45.75
113;BME280;45999;48.808;9.182;2023-06-26T12:31:53;98018.78;;;29.46;45.17
113;BME280;45999;48.808;9.182;2023-06-26T12:34:20;98013.28;;;29.34;45.45
113;BME280;45999;48.808;9.182;2023-06-26T12:36:49;98015.34;;;29.25;46.91
113;BME280;45999;48.808;9.182;2023-06-26T12:39:20;98013.72;;;29.00;46.37
113;BME280;45999;48.808;9.182;2023-06-26T12:41:57;98017.22;;;29.01;46.85
113;BME280;45999;48.808;9.182;2023-06-26T12:44:28;98016.28;;;28.97;46.73
113;BME280;45999;48.808;9.182;2023-06-26T12:46:57;98014.00;;;29.31;46.42
113;BME280;45999;48.808;9.182;2023-06-26T12:49:34;98020.72;;;29.34;45.79
113;BME280;45999;48.808;9.182;2023-06-26T12:52:02;98017.63;;;29.47;44.84
113;BME280;45999;48.808;9.182;2023-06-26T12:54:29;98008.50;;;29.55;45.01
113;BME280;45999;48.808;9.182;2023-06-26T12:56:55;98024.53;;;29.77;44.23
113;BME280;45999;48.808;9.182;2023-06-26T12:59:22;98020.91;;;29.29;44.40
113;BME280;45999;48.808;9.182;2023-06-26T13:01:48;98020.38;;;29.47;44.96
113;BME280;45999;48.808;9.182;2023-06-26T13:04:15;98022.47;;;29.62;44.30
113;BME280;45999;48.808;9.182;2023-06-26T13:06:42;98007.72;;;29.91;44.52
113;BME280;45999;48.808;9.182;2023-06-26T13:09:08;98015.84;;;29.75;43.57
113;BME280;45999;48.808;9.182;2023-06-26T13:11:36;98008.84;;;29.90;43.99
113;BME280;45999;48.808;9.182;2023-06-26T13:14:03;98019.38;;;29.88;43.36
113;BME280;45999;48.808;9.182;2023-06-26T13:16:29;98017.09;;;29.90;42.87
113;BME280;45999;48.808;9.182;2023-06-26T13:18:58;98013.09;;;29.75;43.15
113;BME280;45999;48.808;9.182;2023-06-26T13:21:24;98014.72;;;29.64;43.83
113;BME280;45999;48.808;9.182;2023-06-26T13:23:51;98012.88;;;29.56;42.45
113;BME280;45999;48.808;9.182;2023-06-26T13:26:19;98013.97;;;29.43;43.82
113;BME280;45999;48.808;9.182;2023-06-26T13:28:46;97995.28;;;29.69;41.67
113;BME280;45999;48.808;9.182;2023-06-26T13:31:13;98014.00;;;29.55;41.65
113;BME280;45999;48.808;9.182;2023-06-26T13:33:40;98008.84;;;29.54;42.17
113;BME280;45999;48.808;9.182;2023-06-26T13:36:06;98014.72;;;29.64;41.48